Akron, AL

3:07 AM CST on February 26, 2017 (GMT -0600)
Greensboro | | Change Station

Elev 285 ft 32.72 °N, 87.62 °W | Updated 22 seconds ago

Clear
Clear
32.2 °F
Feels Like 32 °F
N
0.0
Wind Variable Wind from NNE

Today
High -- | Low -- °F
--% Chance of Precip.
Yesterday
High -- | Low -- °F
Precip. -- in
Pressure 30.19 in
Visibility 10.0 miles
Clouds Clear
Windchill 32 °F
Dew Point 31 °F
Humidity 95%
Rainfall 0.00 in
Snow Depth Not available.
6:22 AM 5:45 PM
Waning Crescent, 0% visible
METAR KTCL 260853Z AUTO 31003KT 10SM CLR 01/M03 A3020 RMK AO2 SLP224 T00061028 51011
Pressure 30.19 in
Visibility 10.0 miles
Clouds Clear
Windchill 32 °F
Dew Point 31 °F
Humidity 95%
Rainfall 0.00 in
Snow Depth Not available.
6:22 AM 5:45 PM
Waning Crescent, 0% visible
METAR KTCL 260853Z AUTO 31003KT 10SM CLR 01/M03 A3020 RMK AO2 SLP224 T00061028 51011

Get Your Daily Forecast Email!

Thanks for signing up!

Be on the lookout for a verification email in your inbox.

You'll start receiving the daily forecast at 8 AM.

×

10-Day Weather Forecast

Almanac

Astronomy

Feb. 26, 2017 Rise Set
Actual Time
Civil Twilight
Nautical Twilight
Astronomical Twilight
Moon
Length of Visible Light
Length of Day
Tomorrow will be .
, % of the Moon is Illuminated

Today's Extremes

State Highs State Lows

Community

WunderPhotos

Upload Photos

1,962,540 photos uploaded!

WunderBlog® & News

Nearby

Air Quality

  Air Quality AQ Index Pollutant
Not available.

Snow Depth

Station Depth Elevation

Earthquake Activity

City Distance Mag. Time & Date
Minimum magnitude displayed is 2.5.

Coastal Water Temperatures

Place Temperature

Stations

Nearby Weather Stations

Station Location Temp. Windchill Dew Point Humidity Wind Precip. Elev Updated Type
                   

Watches & Warnings

There are currently no watches in effect.